createdAt,value
2022-10-21T00:01:32.100Z,14.20
2022-10-21T00:03:58.537Z,13.80
2022-10-21T00:06:25.009Z,13.00
2022-10-21T00:08:51.517Z,12.70
2022-10-21T00:11:17.996Z,13.10
2022-10-21T00:13:44.403Z,13.00
2022-10-21T00:16:14.309Z,12.40
2022-10-21T00:18:43.184Z,12.50
2022-10-21T00:21:12.654Z,11.70
2022-10-21T00:23:39.960Z,12.20
2022-10-21T00:26:07.141Z,12.20
2022-10-21T00:28:33.561Z,11.90
2022-10-21T00:31:00.239Z,11.80
2022-10-21T00:33:27.793Z,11.90
2022-10-21T00:35:57.171Z,11.90
2022-10-21T00:38:23.683Z,12.00
2022-10-21T00:40:50.271Z,11.70
2022-10-21T00:43:17.916Z,11.50
2022-10-21T00:45:45.255Z,12.10
2022-10-21T00:48:25.203Z,11.80
2022-10-21T00:50:54.915Z,11.90
2022-10-21T00:53:22.399Z,11.30
2022-10-21T00:55:59.951Z,11.10
2022-10-21T00:58:30.186Z,11.70
2022-10-21T01:00:59.406Z,10.90
2022-10-21T01:03:28.202Z,10.40
2022-10-21T01:05:57.512Z,10.80
2022-10-21T01:08:26.255Z,10.40
2022-10-21T01:10:53.595Z,10.90
2022-10-21T01:13:57.677Z,10.60
2022-10-21T01:16:48.425Z,11.50
2022-10-21T01:19:21.140Z,10.90
2022-10-21T01:21:59.594Z,10.90
2022-10-21T01:24:59.062Z,10.90
2022-10-21T01:27:40.683Z,10.80
2022-10-21T01:30:29.728Z,11.00
2022-10-21T01:33:06.481Z,10.20
2022-10-21T01:35:55.286Z,10.70
2022-10-21T01:38:42.090Z,9.50
2022-10-21T01:41:29.896Z,10.20
2022-10-21T01:44:23.092Z,9.70
2022-10-21T01:47:01.680Z,8.90
2022-10-21T01:49:44.164Z,9.60
2022-10-21T01:52:12.457Z,10.00
2022-10-21T01:54:43.638Z,9.80
2022-10-21T01:57:14.241Z,9.20
2022-10-21T01:59:43.787Z,8.90
2022-10-21T02:02:11.669Z,9.20
2022-10-21T02:04:42.092Z,8.70
2022-10-21T02:07:09.536Z,9.00
2022-10-21T02:09:36.061Z,9.10
2022-10-21T02:12:05.561Z,9.30
2022-10-21T02:14:41.312Z,8.70
2022-10-21T02:17:11.271Z,8.70
2022-10-21T02:19:37.745Z,8.90
2022-10-21T02:22:06.304Z,8.20
2022-10-21T02:24:56.212Z,8.20
2022-10-21T02:27:24.139Z,8.60
2022-10-21T02:29:58.726Z,8.40
2022-10-21T02:32:55.627Z,8.50
2022-10-21T02:35:40.936Z,8.10
2022-10-21T02:38:26.003Z,8.40
2022-10-21T02:40:58.283Z,8.00
2022-10-21T02:43:33.540Z,8.20
2022-10-21T02:46:02.080Z,8.10
2022-10-21T02:48:28.621Z,7.30
2022-10-21T02:50:55.023Z,7.30
2022-10-21T02:53:21.423Z,7.50
2022-10-21T02:55:47.897Z,7.50
2022-10-21T02:58:14.274Z,7.80
2022-10-21T03:00:43.871Z,7.90
2022-10-21T03:03:10.687Z,7.50
2022-10-21T03:05:37.145Z,7.40
2022-10-21T03:08:03.731Z,7.90
2022-10-21T03:10:30.354Z,7.60
2022-10-21T03:12:56.786Z,7.50
2022-10-21T03:15:23.255Z,7.80
2022-10-21T03:17:49.756Z,7.80
2022-10-21T03:20:16.504Z,8.00
2022-10-21T03:22:44.077Z,8.50
2022-10-21T03:25:11.079Z,8.40
2022-10-21T03:27:37.618Z,8.50
2022-10-21T03:30:05.398Z,8.70
2022-10-21T03:32:32.069Z,8.90
2022-10-21T03:34:58.461Z,9.10
2022-10-21T03:37:24.947Z,8.60
2022-10-21T03:39:51.384Z,9.50
2022-10-21T03:42:17.997Z,9.00
2022-10-21T03:44:44.403Z,8.20
2022-10-21T03:47:10.888Z,8.30
2022-10-21T03:49:37.436Z,8.10
2022-10-21T03:52:03.995Z,8.50
2022-10-21T03:54:30.551Z,8.90
2022-10-21T03:56:57.001Z,8.80
2022-10-21T03:59:23.468Z,8.60
2022-10-21T04:01:52.880Z,9.00
2022-10-21T04:04:19.517Z,8.30
2022-10-21T04:06:46.048Z,8.10
2022-10-21T04:09:12.610Z,8.20
2022-10-21T04:11:39.169Z,8.50
2022-10-21T04:14:05.614Z,8.60
2022-10-21T04:16:33.771Z,8.50
2022-10-21T04:19:01.035Z,8.80
2022-10-21T04:21:27.431Z,8.90
2022-10-21T04:23:53.882Z,8.50
2022-10-21T04:26:20.321Z,8.20
2022-10-21T04:28:46.823Z,9.40
2022-10-21T04:31:13.224Z,8.60
2022-10-21T04:33:39.688Z,8.40
2022-10-21T04:36:06.439Z,8.80
2022-10-21T04:38:32.850Z,8.30
2022-10-21T04:41:01.964Z,9.20
2022-10-21T04:43:29.232Z,9.50
2022-10-21T04:45:55.996Z,10.20
2022-10-21T04:48:23.003Z,9.30
2022-10-21T04:50:51.206Z,10.60
2022-10-21T04:53:17.627Z,10.00
2022-10-21T04:55:47.840Z,10.00
2022-10-21T04:58:16.192Z,10.60
2022-10-21T05:00:44.737Z,10.20
2022-10-21T05:03:11.969Z,10.00
2022-10-21T05:05:38.689Z,10.20
2022-10-21T05:08:10.653Z,10.10
2022-10-21T05:10:38.161Z,10.40
2022-10-21T05:13:05.989Z,9.60
2022-10-21T05:15:33.691Z,9.90
2022-10-21T05:18:00.473Z,9.40
2022-10-21T05:20:27.007Z,9.80
2022-10-21T05:22:53.572Z,10.20
2022-10-21T05:25:20.351Z,10.20
2022-10-21T05:27:47.166Z,9.40
2022-10-21T05:30:14.399Z,10.30
2022-10-21T05:32:43.356Z,10.60
2022-10-21T05:35:11.955Z,10.90
2022-10-21T05:37:39.494Z,10.00
2022-10-21T05:40:07.004Z,10.30
2022-10-21T05:42:33.901Z,10.40
2022-10-21T05:45:00.322Z,10.40
2022-10-21T05:47:26.675Z,10.90
2022-10-21T05:49:53.128Z,10.20
2022-10-21T05:52:19.558Z,10.60
2022-10-21T05:54:45.996Z,9.90
2022-10-21T05:57:15.064Z,10.70
2022-10-21T05:59:41.422Z,9.40
2022-10-21T06:02:09.875Z,9.90
2022-10-21T06:04:38.639Z,9.80
2022-10-21T06:07:05.540Z,9.50
2022-10-21T06:09:31.919Z,9.80
2022-10-21T06:11:58.318Z,10.20
2022-10-21T06:14:25.965Z,9.80
2022-10-21T06:16:53.919Z,9.90
2022-10-21T06:19:20.311Z,9.80
2022-10-21T06:21:48.099Z,9.70
2022-10-21T06:24:15.206Z,10.10
2022-10-21T06:26:42.035Z,9.90
2022-10-21T06:31:44.370Z,9.50
2022-10-21T06:34:10.852Z,9.90
2022-10-21T06:36:39.932Z,9.60
2022-10-21T06:39:08.116Z,9.80
2022-10-21T06:41:34.872Z,10.30
2022-10-21T06:44:01.263Z,9.80
2022-10-21T06:46:27.625Z,9.60
2022-10-21T06:48:53.996Z,9.60
2022-10-21T06:51:22.661Z,9.10
2022-10-21T06:53:54.700Z,9.10
2022-10-21T06:56:22.353Z,9.50
2022-10-21T06:58:49.815Z,9.20
2022-10-21T07:01:34.735Z,8.50
2022-10-21T07:04:09.220Z,9.40
2022-10-21T07:06:35.958Z,8.30
2022-10-21T07:09:04.224Z,8.10
2022-10-21T07:11:30.663Z,7.60
2022-10-21T07:13:57.083Z,7.80
2022-10-21T07:16:26.348Z,7.10
2022-10-21T07:18:53.821Z,7.70
2022-10-21T07:21:22.252Z,7.80
2022-10-21T07:23:51.560Z,8.70
2022-10-21T07:26:19.942Z,7.80
2022-10-21T07:28:48.162Z,7.70
2022-10-21T07:31:17.176Z,8.70
2022-10-21T07:33:46.610Z,8.00
2022-10-21T07:36:20.203Z,8.00
2022-10-21T07:38:48.081Z,7.40
2022-10-21T07:41:19.374Z,8.00
2022-10-21T07:43:45.974Z,7.60
2022-10-21T07:46:15.354Z,7.70
2022-10-21T07:48:41.944Z,7.50
2022-10-21T07:51:12.786Z,7.40
2022-10-21T07:53:40.053Z,7.60
2022-10-21T07:56:15.121Z,6.70
2022-10-21T07:58:42.471Z,6.80
2022-10-21T08:01:10.509Z,6.60
2022-10-21T08:03:38.062Z,7.10
2022-10-21T08:06:05.915Z,7.00
2022-10-21T08:08:33.243Z,6.90
2022-10-21T08:10:59.720Z,6.50
2022-10-21T08:13:26.729Z,6.40
2022-10-21T08:15:56.778Z,6.40
2022-10-21T08:18:26.096Z,6.90
2022-10-21T08:20:52.690Z,6.50
2022-10-21T08:23:21.193Z,6.50
2022-10-21T08:25:55.101Z,6.20
2022-10-21T08:28:23.292Z,6.40
2022-10-21T08:30:49.948Z,5.60
2022-10-21T08:33:17.371Z,5.40
2022-10-21T08:35:44.087Z,5.50
2022-10-21T08:38:11.450Z,5.10
2022-10-21T08:40:41.436Z,5.10
2022-10-21T08:43:29.583Z,5.10
2022-10-21T08:46:03.047Z,5.00
2022-10-21T08:48:47.930Z,4.70
2022-10-21T08:51:30.238Z,4.60
2022-10-21T08:54:12.310Z,4.30
2022-10-21T08:56:39.937Z,4.40
2022-10-21T08:59:19.067Z,4.40
2022-10-21T09:02:14.376Z,4.10
2022-10-21T09:05:04.356Z,4.20
2022-10-21T09:07:57.237Z,4.10
2022-10-21T09:10:42.437Z,3.90
2022-10-21T09:13:23.182Z,3.80
2022-10-21T09:16:22.135Z,4.20
2022-10-21T09:18:57.411Z,4.00
2022-10-21T09:22:16.458Z,4.00
2022-10-21T09:24:53.321Z,4.00
2022-10-21T09:27:27.045Z,4.10
2022-10-21T09:30:07.281Z,4.70
2022-10-21T09:32:39.302Z,4.50
2022-10-21T09:35:16.205Z,4.40
2022-10-21T09:37:51.678Z,4.50
2022-10-21T09:40:20.834Z,4.00
2022-10-21T09:42:51.594Z,4.10
2022-10-21T09:45:24.755Z,3.90
2022-10-21T09:47:58.577Z,3.80
2022-10-21T09:50:25.921Z,3.90
2022-10-21T09:53:00.901Z,4.10
2022-10-21T09:55:28.888Z,3.70
2022-10-21T09:57:59.090Z,3.40
2022-10-21T10:00:44.593Z,3.90
2022-10-21T10:03:12.067Z,3.50
2022-10-21T10:05:48.031Z,3.70
2022-10-21T10:08:33.171Z,3.60
2022-10-21T10:11:03.805Z,4.00
2022-10-21T10:13:31.978Z,4.20
2022-10-21T10:16:22.986Z,3.80
2022-10-21T10:19:09.939Z,4.20
2022-10-21T10:21:36.367Z,3.80
2022-10-21T10:24:03.180Z,4.20
2022-10-21T10:26:38.068Z,4.10
2022-10-21T10:29:23.676Z,3.90
2022-10-21T10:31:55.475Z,4.60
2022-10-21T10:34:37.447Z,4.20
2022-10-21T10:37:20.435Z,4.30
2022-10-21T10:39:50.830Z,4.50
2022-10-21T10:42:24.203Z,4.20
2022-10-21T10:45:02.327Z,4.30
2022-10-21T10:47:41.935Z,4.30
2022-10-21T10:50:41.539Z,3.90
2022-10-21T10:53:21.287Z,4.20
2022-10-21T10:55:55.391Z,4.10
2022-10-21T10:58:28.022Z,4.40
2022-10-21T11:00:59.650Z,3.90
2022-10-21T11:04:02.476Z,3.70
2022-10-21T11:06:35.226Z,3.80
2022-10-21T11:09:02.786Z,3.60
2022-10-21T11:11:43.483Z,3.50
2022-10-21T11:14:20.216Z,3.40
2022-10-21T11:17:00.507Z,3.30
2022-10-21T11:19:30.264Z,3.10
2022-10-21T11:22:24.726Z,3.50
2022-10-21T11:25:02.389Z,3.20
2022-10-21T11:27:46.909Z,3.80
2022-10-21T11:30:19.686Z,3.70
2022-10-21T11:32:48.633Z,3.40
2022-10-21T11:35:24.910Z,4.00
2022-10-21T11:38:06.541Z,3.60
2022-10-21T11:40:38.266Z,3.50
2022-10-21T11:43:33.967Z,3.60
2022-10-21T11:46:22.774Z,3.70
2022-10-21T11:49:24.830Z,3.50
2022-10-21T11:52:13.041Z,3.70
2022-10-21T11:55:08.269Z,3.90
2022-10-21T11:58:18.791Z,3.70
2022-10-21T12:01:19.385Z,3.80
2022-10-21T12:04:08.856Z,3.80
2022-10-21T12:07:10.308Z,3.80
2022-10-21T12:09:49.223Z,3.50
2022-10-21T12:12:25.160Z,3.70
2022-10-21T12:15:02.391Z,3.80
2022-10-21T12:17:32.961Z,4.30
2022-10-21T12:20:03.545Z,4.30
2022-10-21T12:22:33.263Z,3.50
2022-10-21T12:25:31.699Z,3.80
2022-10-21T12:28:22.299Z,3.90
2022-10-21T12:31:23.475Z,4.20
2022-10-21T12:33:50.542Z,3.90
2022-10-21T12:36:22.828Z,3.80
2022-10-21T12:38:54.603Z,4.00
2022-10-21T12:41:24.122Z,4.00
2022-10-21T12:44:03.006Z,4.20
2022-10-21T12:46:39.078Z,4.30
2022-10-21T12:49:18.981Z,4.10
2022-10-21T12:52:03.838Z,4.20
2022-10-21T12:55:01.041Z,4.60
2022-10-21T12:57:37.410Z,4.50
2022-10-21T13:03:04.823Z,4.90
2022-10-21T13:05:37.364Z,4.80
2022-10-21T13:08:19.061Z,4.90
2022-10-21T13:11:04.430Z,5.30
2022-10-21T13:13:39.341Z,5.40
2022-10-21T13:16:17.978Z,5.40
2022-10-21T13:18:50.484Z,5.20
2022-10-21T13:21:35.338Z,5.10
2022-10-21T13:24:23.570Z,5.80
2022-10-21T13:26:55.727Z,5.50
2022-10-21T13:29:25.117Z,6.00
2022-10-21T13:32:12.381Z,6.00
2022-10-21T13:35:01.745Z,5.40
2022-10-21T13:37:35.673Z,5.90
2022-10-21T13:40:16.721Z,6.50
2022-10-21T13:42:49.488Z,5.50
2022-10-21T13:45:36.741Z,5.50
2022-10-21T13:48:03.113Z,5.80
2022-10-21T13:50:33.597Z,5.60
2022-10-21T13:53:05.442Z,5.40
2022-10-21T13:55:31.829Z,5.00
2022-10-21T13:57:58.259Z,4.90
2022-10-21T14:00:32.298Z,5.10
2022-10-21T14:03:05.524Z,5.60
2022-10-21T14:05:38.587Z,5.30
2022-10-21T14:08:17.160Z,5.30
2022-10-21T14:10:46.664Z,6.00
2022-10-21T14:13:13.717Z,5.40
2022-10-21T14:15:43.647Z,5.70
2022-10-21T14:18:42.375Z,5.40
2022-10-21T14:21:17.915Z,5.60
2022-10-21T14:23:46.642Z,5.80
2022-10-21T14:26:13.436Z,5.80
2022-10-21T14:28:40.022Z,5.80
2022-10-21T14:31:11.612Z,5.70
2022-10-21T14:33:42.348Z,6.00
2022-10-21T14:36:15.721Z,6.70
2022-10-21T14:38:59.078Z,6.00
2022-10-21T14:41:30.286Z,6.10
2022-10-21T14:44:04.975Z,6.40
2022-10-21T14:46:39.425Z,6.00
2022-10-21T14:49:06.362Z,6.00
2022-10-21T14:51:38.038Z,6.40
2022-10-21T14:54:07.290Z,6.10
2022-10-21T14:56:42.741Z,5.80
2022-10-21T14:59:40.983Z,5.70
2022-10-21T15:02:28.396Z,6.90
2022-10-21T15:05:03.651Z,6.00
2022-10-21T15:07:33.226Z,5.80
2022-10-21T15:10:02.733Z,6.20
2022-10-21T15:12:53.377Z,5.90
2022-10-21T15:15:42.203Z,5.60
2022-10-21T15:18:18.010Z,5.80
2022-10-21T15:20:58.430Z,5.60
2022-10-21T15:23:31.282Z,6.30
2022-10-21T15:26:15.873Z,6.60
2022-10-21T15:28:43.297Z,6.60
2022-10-21T15:31:18.641Z,6.10
2022-10-21T15:33:45.165Z,5.70
2022-10-21T15:36:14.157Z,6.40
2022-10-21T15:38:46.722Z,5.90
2022-10-21T15:41:25.309Z,6.00
2022-10-21T15:44:03.265Z,5.50
2022-10-21T15:46:33.136Z,5.70
2022-10-21T15:49:11.991Z,5.80
2022-10-21T15:51:38.393Z,6.10
2022-10-21T15:54:04.732Z,6.30
2022-10-21T15:56:31.118Z,6.20
2022-10-21T15:58:57.508Z,6.50
2022-10-21T16:01:23.890Z,6.80
2022-10-21T16:03:50.364Z,6.80
2022-10-21T16:06:19.588Z,6.90
2022-10-21T16:08:46.973Z,6.50
2022-10-21T16:11:25.671Z,7.30
2022-10-21T16:14:01.693Z,7.00
2022-10-21T16:16:28.216Z,6.60
2022-10-21T16:18:54.894Z,5.70
2022-10-21T16:21:22.986Z,5.90
2022-10-21T16:23:50.129Z,6.30
2022-10-21T16:26:22.082Z,6.50
2022-10-21T16:28:49.781Z,7.80
2022-10-21T16:31:16.312Z,7.40
2022-10-21T16:33:42.880Z,7.50
2022-10-21T16:36:20.264Z,6.90
2022-10-21T16:38:47.417Z,6.30
2022-10-21T16:41:16.894Z,6.70
2022-10-21T16:43:43.930Z,5.70
2022-10-21T16:46:22.614Z,5.90
2022-10-21T16:48:51.843Z,5.70
2022-10-21T16:51:18.586Z,5.90
2022-10-21T16:53:44.940Z,6.70
2022-10-21T16:56:11.298Z,7.10
2022-10-21T16:58:37.770Z,6.80
2022-10-21T17:01:06.078Z,7.40
2022-10-21T17:03:33.996Z,6.60
2022-10-21T17:06:00.705Z,7.20
2022-10-21T17:08:27.080Z,6.80
2022-10-21T17:10:53.512Z,6.70
2022-10-21T17:13:19.907Z,6.90
2022-10-21T17:15:46.317Z,6.70
2022-10-21T17:18:15.473Z,7.00
2022-10-21T17:20:43.173Z,6.60
2022-10-21T17:23:11.767Z,7.10
2022-10-21T17:25:38.282Z,6.10
2022-10-21T17:28:04.931Z,6.70
2022-10-21T17:30:31.447Z,6.50
2022-10-21T17:32:57.905Z,6.10
2022-10-21T17:35:24.504Z,6.30
2022-10-21T17:37:52.368Z,6.90
2022-10-21T17:40:22.984Z,6.60
2022-10-21T17:42:49.645Z,6.60
2022-10-21T17:45:17.856Z,6.70
2022-10-21T17:47:45.041Z,6.30
2022-10-21T17:50:12.712Z,7.60
2022-10-21T17:52:41.376Z,6.40
2022-10-21T17:55:08.439Z,6.40
2022-10-21T17:57:35.407Z,6.00
2022-10-21T18:00:03.543Z,6.40
2022-10-21T18:02:33.366Z,6.10
2022-10-21T18:05:00.793Z,6.30
2022-10-21T18:07:28.554Z,6.00
2022-10-21T18:09:55.597Z,6.30
2022-10-21T18:12:23.178Z,6.00
2022-10-21T18:14:51.496Z,6.50
2022-10-21T18:17:19.177Z,6.50
2022-10-21T18:19:47.043Z,6.30
2022-10-21T18:22:14.027Z,7.00
2022-10-21T18:24:40.836Z,6.20
2022-10-21T18:27:08.054Z,7.10
2022-10-21T18:29:35.084Z,8.60
2022-10-21T18:32:01.878Z,7.70
2022-10-21T18:34:29.900Z,7.40
2022-10-21T18:36:59.392Z,7.50
2022-10-21T18:39:26.764Z,6.20
2022-10-21T18:41:53.721Z,5.20
2022-10-21T18:44:20.153Z,5.40
2022-10-21T18:46:49.230Z,5.60
2022-10-21T18:49:18.408Z,5.10
2022-10-21T18:51:45.447Z,5.30
2022-10-21T18:54:15.699Z,5.30
2022-10-21T18:56:42.139Z,4.90
2022-10-21T18:59:09.910Z,5.40
2022-10-21T19:01:36.999Z,5.90
2022-10-21T19:04:03.769Z,8.50
2022-10-21T19:06:40.529Z,7.80
2022-10-21T19:09:22.513Z,6.70
2022-10-21T19:11:49.027Z,6.80
2022-10-21T19:14:16.130Z,7.70
2022-10-21T19:16:44.065Z,9.10
2022-10-21T19:19:11.558Z,9.10
2022-10-21T19:21:38.027Z,9.20
2022-10-21T19:24:04.918Z,8.10
2022-10-21T19:26:34.077Z,8.70
2022-10-21T19:29:03.372Z,8.50
2022-10-21T19:31:32.387Z,9.90
2022-10-21T19:34:02.371Z,10.40
2022-10-21T19:36:28.798Z,10.10
2022-10-21T19:38:55.185Z,9.00
2022-10-21T19:41:23.118Z,8.70
2022-10-21T19:43:51.802Z,7.80
2022-10-21T19:46:24.832Z,7.50
2022-10-21T19:48:52.503Z,7.70
2022-10-21T19:51:22.089Z,7.70
2022-10-21T19:53:50.147Z,8.10
2022-10-21T19:56:20.893Z,7.20
2022-10-21T19:58:50.620Z,8.60
2022-10-21T20:01:26.388Z,9.10
2022-10-21T20:03:54.249Z,8.30
2022-10-21T20:06:22.392Z,8.40
2022-10-21T20:08:49.283Z,8.00
2022-10-21T20:11:19.079Z,6.80
2022-10-21T20:13:46.245Z,7.20
2022-10-21T20:16:38.916Z,6.90
2022-10-21T20:19:06.947Z,7.60
2022-10-21T20:21:35.316Z,7.00
2022-10-21T20:24:02.844Z,7.30
2022-10-21T20:26:29.762Z,7.10
2022-10-21T20:28:57.302Z,7.50
2022-10-21T20:31:24.430Z,8.10
2022-10-21T20:33:51.739Z,8.70
2022-10-21T20:36:27.357Z,9.40
2022-10-21T20:38:58.228Z,11.10
2022-10-21T20:41:28.192Z,11.50
2022-10-21T20:43:55.019Z,12.10
2022-10-21T20:46:23.682Z,10.70
2022-10-21T20:48:52.159Z,10.20
2022-10-21T20:51:24.291Z,9.00
2022-10-21T20:54:02.970Z,8.50
2022-10-21T20:56:35.131Z,9.00
2022-10-21T20:59:02.893Z,9.50
2022-10-21T21:01:32.602Z,9.20
2022-10-21T21:04:04.683Z,9.40
2022-10-21T21:06:35.246Z,8.50
2022-10-21T21:09:33.092Z,8.00
2022-10-21T21:11:48.324Z,8.20
2022-10-21T21:14:15.020Z,8.20
2022-10-21T21:16:41.463Z,8.20
2022-10-21T21:19:11.839Z,7.70
2022-10-21T21:21:38.687Z,8.00
2022-10-21T21:24:05.563Z,7.40
2022-10-21T21:26:35.667Z,7.40
2022-10-21T21:29:02.919Z,8.10
2022-10-21T21:31:31.082Z,8.00
2022-10-21T21:33:57.796Z,7.80
2022-10-21T21:36:25.361Z,8.20
2022-10-21T21:38:54.016Z,7.80
2022-10-21T21:41:22.497Z,8.60
2022-10-21T21:43:50.964Z,8.10
2022-10-21T21:46:23.864Z,7.50
2022-10-21T21:48:59.493Z,7.80
2022-10-21T21:51:33.842Z,7.80
2022-10-21T21:54:00.349Z,8.20
2022-10-21T21:56:28.013Z,8.70
2022-10-21T21:58:56.248Z,8.20
2022-10-21T22:01:25.267Z,8.10
2022-10-21T22:03:52.009Z,8.20
2022-10-21T22:06:21.625Z,8.10
2022-10-21T22:08:48.789Z,8.10
2022-10-21T22:11:18.845Z,7.60
2022-10-21T22:13:45.990Z,7.80
2022-10-21T22:16:15.291Z,7.60
2022-10-21T22:18:42.494Z,8.20
2022-10-21T22:21:12.987Z,7.70
2022-10-21T22:23:40.133Z,7.60
2022-10-21T22:26:07.711Z,7.30
2022-10-21T22:28:35.094Z,7.50
2022-10-21T22:31:05.426Z,7.50
2022-10-21T22:33:32.491Z,7.70
2022-10-21T22:35:59.240Z,7.60
2022-10-21T22:38:25.771Z,7.20
2022-10-21T22:40:53.853Z,7.90
2022-10-21T22:43:20.385Z,7.20
2022-10-21T22:45:48.137Z,7.30
2022-10-21T22:48:15.762Z,7.70
2022-10-21T22:50:42.335Z,7.40
2022-10-21T22:53:09.411Z,7.30
2022-10-21T22:55:36.389Z,7.50
2022-10-21T22:58:02.921Z,7.60
2022-10-21T23:00:29.447Z,7.40
2022-10-21T23:02:56.037Z,6.90
2022-10-21T23:05:23.059Z,6.60
2022-10-21T23:07:50.305Z,6.80
2022-10-21T23:10:16.899Z,6.60
2022-10-21T23:12:43.586Z,6.10
2022-10-21T23:15:10.808Z,6.40
2022-10-21T23:17:37.240Z,6.20
2022-10-21T23:20:04.599Z,6.40
2022-10-21T23:22:31.005Z,6.60
2022-10-21T23:24:57.512Z,6.60
2022-10-21T23:27:23.892Z,6.70
2022-10-21T23:29:50.374Z,6.60
2022-10-21T23:32:16.799Z,7.30
2022-10-21T23:34:43.602Z,6.70
2022-10-21T23:37:10.284Z,7.10
2022-10-21T23:39:36.813Z,7.20
2022-10-21T23:42:03.396Z,6.90
2022-10-21T23:44:29.859Z,6.60
2022-10-21T23:46:57.000Z,7.50
2022-10-21T23:49:24.190Z,7.50
2022-10-21T23:51:50.739Z,6.70
2022-10-21T23:54:17.177Z,6.90
2022-10-21T23:56:43.794Z,7.30
2022-10-21T23:59:10.268Z,7.40
